Relevés horaires Matro (Suisse)


Relevés horaires à Matro - Lundi 24 Nov. 2014
Heure UTC1 Température [°C] Vent [km/h] Hum. [%] Pres.4 [hPa] Visi. [Km] Nébu. [octa] Préc.5 [mm] Cond.
2m. Res. Ros. Dir.2 Vit. Moy. Raf.3
23:00 6.6 3 -1.2 SSE 20.4 20.4 24.1 57 850(-0.4/3h) -- -- -- --
22:00 6.8 4.6 -1.0 S 11.1 11.1 13.0 57 850(-0.1/3h) -- -- -- --
21:00 7.2 6.4 -1.0 S 5.6 18.5 20.4 56 850(0.1/3h) -- -- -- --
20:00 7.8 7.8 -1.2 S 3.7 16.7 18.5 53 850(0.2/3h) -- -- -- --
19:00 7.2 4 -0.9 NNO 18.5 18.5 20.4 56 850(0.0/3h) -- -- -- --
18:00 7.3 6.5 -1.1 ONO 5.6 16.7 18.5 55 850(0.1/3h) -- -- -- --
17:00 7.4 4.7 -0.7 NNO 14.8 14.8 16.7 56 850(0.1/3h) -- -- -- --
16:00 7.4 4.7 -0.4 NNO 14.8 14.8 16.7 58 850(-0.2/3h) -- -- -- --
15:00 8.1 8.1 -1.5 N 3.7 9.3 13.0 51 850(-0.6/3h) -- -- -- --
14:00 8.3 8.3 -- NNO 3.7 5.6 11.1 -- 850(-0.8/3h) -- -- -- --
13:00 8.5 8.5 -0.2 O 3.7 5.6 13.0 54 850(-1.1/3h) -- -- -- --
12:00 7.9 7.9 -0.7 OSO 3.7 27.8 38.9 54 850(-0.7/3h) -- -- -- --
11:00 7.7 6.9 -1.1 NO 5.6 5.6 9.3 54 850(-0.4/3h) -- -- -- --
10:00 7.7 6.4 -1.2 NNO 7.4 16.7 22.2 53 850(0.2/3h) -- -- -- --
09:00 7.7 4.4 -1.1 NNO 20.4 27.8 38.9 54 850(0.4/3h) -- -- -- --
08:00 7.7 4.6 -1.9 NNO 18.5 24.1 38.9 51 850(0.6/3h) -- -- -- --
07:00 7.9 7.9 -2.6 ONO 3.7 13.0 13.0 47 850(0.3/3h) -- -- -- --
06:00 8.3 6.4 -2.3 NNO 11.1 11.1 13.0 47 850(-0.2/3h) -- -- -- --
05:00 8.9 8.9 -2.7 NNE 1.9 5.6 9.3 44 850(-0.6/3h) -- -- -- --
04:00 8.3 7.6 -3.1 ENE 5.6 5.6 7.4 44 850(-0.6/3h) -- -- -- --
03:00 8.3 8.3 -3.1 ENE 3.7 5.6 9.3 44 850(-0.6/3h) -- -- -- --
02:00 8.1 7.4 -3.3 N 5.6 5.6 7.4 44 850(-0.5/3h) -- -- -- --
01:00 8.3 7.6 -3.7 ENE 5.6 5.6 9.3 42 850(-0.3/3h) -- -- -- --
00:00 8.1 7.4 -4.1 NE 5.6 9.3 13.0 42 850(0.1/3h) -- -- -- --

1 Coordinated Universal Time. Actuellement il est 06:00 locale et 04:00 UTC.

2 Le vent souffle depuis la direction indiquée vers la direction oposée.

3 Les rafales max. sont disponible 40 min après l'heure du relevé.

4 Pour les stations d'altitude (plus de 600m) le géopotentiel du niveau le plus proche de la pression obligatoire est indiqué.

5 Les stations disposant d'un diffuseur peuvent indiquer "trace". Cela signifie que des précipitations ont touchés le sol mais que la quantité est inférieure à 0.1 mm.

Copyright

Les données affichées sur cette page sont la propriété exclusive de Météo Suisse.

Récapitulatif de la journée
Température [°C] Vent [km/h] Ensoleillement4 [h] Precipitations totale5 [mm] Pression [Hpa]
Min1 Max.2 Moy.3 Max. Min Max.
6.6 8.8 13.1 38.9 4 h 0 min 0 850.0 850.0

1 Température minimale relevée entre 18:00 UTC la veille et 18:00 UTC le jour donné.

2 Température maximale relevée entre 06:00 UTC le jour donné et 06:00 UTC le lendemain.

3 Vent moyen de la journée basé sur les relevés horaires.

4 Ensoleillement en heures relevé entre 06:00 UTC la veille et 06:00 UTC le jour donné.

5 Précipitations totales tombées entre 06:00 UTC la jour donné et 06:00 UTC le lendemain.

Graphiques horaires